HLLQ Airport Information

Runway Information
Runway 03 Length 6214 ft width 190 ft
Elevation 2267 ft Threshold 0 ft Heading 30
Runway 21 Length 6214 ft Width 190 ft
Elevation 2208 ft Threshold 0 ft Heading 210
Runway 10 Length 11824 ft width 148 ft
Elevation 2156 ft Threshold 0 ft Heading 103
Runway 28 Length 11824 ft Width 148 ft
Elevation 2157 ft Threshold 0 ft Heading 283
Airport Frequencies
Type APP Name BENGHAZI A Frequency 126.5 MHZ
Type TWR Name TWR Frequency 118.1 MHZ
Airport Navaids
Type NDB Name Labraq Frequency 392 KHZ
Airport Weather Information & NOTAM
ADDS - METARS form results

(0016 UTC 22 May 2022)
Data provider http://aviationweather.gov/metar/data/
 
Forecast for: HLLQ (EL BEIDA , LY)
Text: TAF HLLQ 212300Z 2200/2224 26014KT 8000 SCT025
Forecast period: 0000 UTC 22 May 2022 to 0000 UTC 23 May 2022
Forecast type: FROM: standard forecast or significant change
Winds: from the W (260 degrees) at 16 MPH (14 knots; 7.2 m/s)
Visibility: 5 miles (8 km)
Ceiling: at least 12,000 feet AGL
Clouds: scattered clouds at 2500 feet AGL
Weather: no significant weather forecast for this period